Time;durP1;ratioP1;P1;durP2;ratioP2;P2;SDS_P1;SDS_P2;PMS_P1;PMS_P2;Temp;Humidity;BMP_temperature;BMP_pressure;BME280_temperature;BME280_humidity;BME280_pressure;Samples;Min_cycle;Max_cycle;Signal;HPM_P1;HPM_P2
2022/09/20 00:00:42;;;;;;;;;2.67;2.67;;;;;13.79;67.54;100679.53;5078515;27;45571;-67
2022/09/20 00:03:09;;;;;;;;;4.00;3.00;;;;;13.76;67.90;100689.97;5078604;28;45544;-67
2022/09/20 00:05:36;;;;;;;;;4.00;2.75;;;;;13.70;68.30;100682.84;5078388;28;46352;-66
2022/09/20 00:08:04;;;;;;;;;3.00;2.00;;;;;13.75;68.34;100690.81;5078125;28;45511;-67
2022/09/20 00:10:34;;;;;;;;;4.25;3.00;;;;;13.73;68.33;100687.28;5078350;28;45299;-67
2022/09/20 00:13:01;;;;;;;;;3.00;2.33;;;;;13.63;68.39;100670.47;5078421;28;45511;-67
2022/09/20 00:15:27;;;;;;;;;2.00;2.00;;;;;13.65;68.28;100662.63;5076629;28;46274;-69
2022/09/20 00:17:52;;;;;;;;;3.33;3.00;;;;;13.65;68.20;100655.63;5078016;27;45414;-69
2022/09/20 00:20:18;;;;;;;;;6.25;3.75;;;;;13.66;68.09;100651.25;5078079;28;45419;-69
2022/09/20 00:22:43;;;;;;;;;3.33;3.33;;;;;13.75;68.35;100671.53;5078204;28;45533;-69
2022/09/20 00:25:09;;;;;;;;;3.00;3.00;;;;;13.65;68.17;100667.88;5078063;28;45471;-69
2022/09/20 00:27:34;;;;;;;;;2.33;2.33;;;;;13.69;68.00;100673.22;5077894;28;45480;-69
2022/09/20 00:30:00;;;;;;;;;3.00;3.00;;;;;13.63;67.66;100659.97;5077963;28;45493;-69
2022/09/20 00:32:25;;;;;;;;;3.00;3.00;;;;;13.62;67.82;100659.94;5078137;28;45459;-69
2022/09/20 00:35:06;;;;;;;;;2.00;2.00;;;;;13.57;68.41;100659.84;5077730;28;45697;-69
2022/09/20 00:37:50;;;;;;;;;3.00;3.00;;;;;13.40;69.28;100637.63;5077949;27;45355;-72
2022/09/20 00:40:21;;;;;;;;;5.00;4.00;;;;;13.42;69.23;100659.53;5077841;28;45475;-69
2022/09/20 00:42:47;;;;;;;;;3.25;3.00;;;;;13.45;69.81;100664.84;5077954;28;45393;-68
2022/09/20 00:45:27;;;;;;;;;3.50;3.50;;;;;13.35;69.61;100658.53;5076086;27;45619;-68
2022/09/20 00:48:11;;;;;;;;;3.00;3.00;;;;;13.44;69.77;100670.97;5076435;28;45488;-68
2022/09/20 00:50:41;;;;;;;;;2.00;2.00;;;;;13.23;69.73;100638.16;5076491;28;45362;-68
2022/09/20 00:53:25;;;;;;;;;4.25;4.00;;;;;13.40;70.42;100672.63;5078104;28;45306;-69
2022/09/20 00:55:59;;;;;;;;;3.00;2.67;;;;;13.28;70.53;100659.22;5077217;28;45962;-68
2022/09/20 00:58:27;;;;;;;;;2.00;2.00;;;;;13.31;69.85;100667.22;5077158;28;45448;-68
2022/09/20 01:00:55;;;;;;;;;2.50;2.50;;;;;13.41;70.02;100678.75;5076186;28;45258;-68
2022/09/20 01:03:25;;;;;;;;;3.00;3.00;;;;;13.39;70.83;100675.22;5077654;27;45346;-68
2022/09/20 01:05:52;;;;;;;;;3.00;3.00;;;;;13.40;70.36;100677.00;5077170;27;46199;-68
2022/09/20 01:08:18;;;;;;;;;3.00;3.00;;;;;13.38;70.50;100679.59;5077156;27;45408;-68
2022/09/20 01:10:44;;;;;;;;;4.00;3.00;;;;;13.25;70.35;100661.78;5077371;28;45309;-69
2022/09/20 01:13:10;;;;;;;;;3.00;3.00;;;;;13.19;69.79;100641.56;5077867;28;45278;-68
2022/09/20 01:15:38;;;;;;;;;3.00;3.00;;;;;13.33;70.09;100655.00;5076922;28;46286;-68
2022/09/20 01:18:06;;;;;;;;;3.00;3.00;;;;;13.42;69.49;100670.91;5075825;27;45371;-68
2022/09/20 01:20:38;;;;;;;;;4.00;2.67;;;;;13.34;69.21;100659.38;5075913;28;45527;-68
2022/09/20 01:23:29;;;;;;;;;3.00;3.00;;;;;13.41;69.97;100668.25;5077433;28;45473;-68
2022/09/20 01:25:57;;;;;;;;;3.67;3.33;;;;;13.42;70.21;100670.03;5076977;27;46071;-72
2022/09/20 01:28:23;;;;;;;;;4.00;3.00;;;;;13.36;70.33;100664.66;5077037;28;45552;-68
2022/09/20 01:31:01;;;;;;;;;2.75;2.75;;;;;13.38;69.90;100669.09;5076944;28;45299;-68
2022/09/20 01:33:51;;;;;;;;;3.00;3.00;;;;;13.32;71.58;100675.09;5077218;28;45349;-68
2022/09/20 01:36:41;;;;;;;;;4.25;3.75;;;;;13.31;71.41;100672.47;5076726;28;46259;-68
2022/09/20 01:39:28;;;;;;;;;3.00;3.00;;;;;13.28;71.41;100673.22;5076871;27;45320;-68
2022/09/20 01:42:01;;;;;;;;;4.00;2.00;;;;;13.22;72.90;100666.97;5077369;27;45306;-68
2022/09/20 01:45:13;;;;;;;;;3.50;3.00;;;;;13.13;71.88;100667.69;5077214;27;45228;-68
2022/09/20 01:47:58;;;;;;;;;3.00;3.00;;;;;13.16;72.77;100670.34;5076842;28;45910;-72
2022/09/20 01:51:01;;;;;;;;;3.67;2.00;;;;;13.16;71.92;100665.09;5076904;27;45228;-72
2022/09/20 01:53:44;;;;;;;;;4.33;4.00;;;;;13.17;71.97;100663.34;5076816;27;45215;-72
2022/09/20 01:56:28;;;;;;;;;3.00;3.00;;;;;13.19;72.36;100664.28;5077263;28;45294;-72
2022/09/20 01:59:03;;;;;;;;;3.00;3.00;;;;;13.18;72.30;100662.50;5077581;28;45365;-69
2022/09/20 02:01:32;;;;;;;;;2.33;2.33;;;;;13.13;71.95;100665.06;5080269;28;45432;-72
2022/09/20 02:04:24;;;;;;;;;4.00;4.00;;;;;13.16;71.48;100659.84;5080351;28;45515;-68
2022/09/20 02:06:50;;;;;;;;;3.00;3.00;;;;;13.17;71.34;100661.63;5080500;28;45291;-69
2022/09/20 02:10:03;;;;;;;;;3.00;3.00;;;;;13.18;71.62;100665.13;5080287;28;46234;-72
2022/09/20 02:12:38;;;;;;;;;4.00;3.25;;;;;13.18;71.74;100657.28;5077843;28;45578;-72
2022/09/20 02:15:15;;;;;;;;;4.50;4.00;;;;;13.17;72.34;100659.00;5078783;28;45403;-72
2022/09/20 02:17:54;;;;;;;;;3.00;3.00;;;;;12.96;72.28;100621.84;5080231;28;45449;-72
2022/09/20 02:20:58;;;;;;;;;2.00;2.00;;;;;13.16;72.68;100659.84;5079855;28;45460;-71
2022/09/20 02:23:32;;;;;;;;;3.25;3.25;;;;;13.13;71.92;100662.44;5070964;28;45285;-71
2022/09/20 02:26:36;;;;;;;;;3.00;3.00;;;;;13.09;71.91;100658.84;5079872;28;45579;-68
2022/09/20 02:29:11;;;;;;;;;2.25;2.25;;;;;13.12;72.28;100655.41;5078320;28;45488;-68
2022/09/20 02:32:11;;;;;;;;;3.25;3.00;;;;;13.10;71.96;100662.34;5079456;28;45509;-68
2022/09/20 02:35:06;;;;;;;;;4.00;3.00;;;;;13.08;72.25;100650.94;5079558;28;45486;-68
2022/09/20 02:37:47;;;;;;;;;3.33;3.00;;;;;13.04;72.50;100657.84;5079872;28;45310;-68
2022/09/20 02:40:46;;;;;;;;;3.00;3.00;;;;;13.00;72.69;100656.00;5079796;28;45465;-68
2022/09/20 02:43:39;;;;;;;;;3.50;2.25;;;;;12.97;72.58;100652.44;5079330;27;45507;-68
2022/09/20 02:46:31;;;;;;;;;2.33;2.00;;;;;12.86;72.58;100628.63;5079407;28;45479;-68
2022/09/20 02:49:18;;;;;;;;;3.00;3.00;;;;;12.98;72.96;100657.72;5078022;27;45650;-68
2022/09/20 02:52:16;;;;;;;;;4.00;3.75;;;;;12.99;73.89;100663.84;5079969;28;45416;-68
2022/09/20 02:54:54;;;;;;;;;3.00;2.75;;;;;12.92;73.17;100645.34;5074186;28;45719;-69
2022/09/20 02:57:39;;;;;;;;;3.00;3.00;;;;;12.88;73.34;100646.13;5079172;28;45381;-68
2022/09/20 03:00:12;;;;;;;;;4.25;3.75;;;;;12.78;73.59;100628.44;5079428;28;45489;-72
2022/09/20 03:02:55;;;;;;;;;2.00;2.00;;;;;12.84;74.11;100644.31;5079614;28;45294;-68
2022/09/20 03:05:23;;;;;;;;;4.00;4.00;;;;;12.76;74.04;100651.13;5079173;28;46431;-69
2022/09/20 03:08:20;;;;;;;;;3.50;3.25;;;;;12.74;74.05;100650.19;5079335;28;45357;-69
2022/09/20 03:11:02;;;;;;;;;3.00;2.75;;;;;12.59;75.45;100626.25;5078600;28;45278;-72
2022/09/20 03:13:27;;;;;;;;;5.25;3.50;;;;;12.71;75.77;100653.63;5079185;28;45391;-68
2022/09/20 03:16:27;;;;;;;;;3.75;3.00;;;;;12.72;76.16;100644.91;5078846;28;45454;-69
2022/09/20 03:18:52;;;;;;;;;3.00;2.50;;;;;12.77;75.32;100646.75;5079027;28;45336;-68
2022/09/20 03:21:54;;;;;;;;;4.00;3.00;;;;;12.66;74.08;100642.16;5079345;28;45495;-68
2022/09/20 03:24:50;;;;;;;;;2.50;2.50;;;;;12.61;73.28;100635.91;5079718;27;45519;-68
2022/09/20 03:27:29;;;;;;;;;3.00;3.00;;;;;12.70;73.07;100659.72;5078996;28;45330;-72
2022/09/20 03:30:22;;;;;;;;;3.00;2.50;;;;;12.69;73.40;100655.34;5078601;28;45345;-68
2022/09/20 03:33:09;;;;;;;;;3.50;2.25;;;;;12.69;73.92;100662.28;5078984;27;45502;-68
2022/09/20 03:35:38;;;;;;;;;5.00;3.00;;;;;12.68;74.22;100653.56;5078760;27;45627;-71
2022/09/20 03:38:09;;;;;;;;;3.50;3.00;;;;;12.69;74.54;100654.44;5078469;27;45291;-71
2022/09/20 03:40:53;;;;;;;;;3.00;2.50;;;;;12.68;73.94;100663.16;5078632;28;45442;-68
2022/09/20 03:43:28;;;;;;;;;2.50;2.50;;;;;12.68;73.76;100665.78;5079022;28;45501;-68
2022/09/20 03:45:59;;;;;;;;;2.00;2.00;;;;;12.68;73.37;100663.16;5078832;28;45479;-68
2022/09/20 03:48:34;;;;;;;;;4.00;3.25;;;;;12.63;74.35;100667.41;5078290;28;45826;-69
2022/09/20 03:51:19;;;;;;;;;3.50;3.00;;;;;12.55;74.71;100667.22;5078383;28;45298;-68
2022/09/20 03:53:50;;;;;;;;;3.25;3.25;;;;;12.57;74.26;100662.00;5078575;27;45369;-68
2022/09/20 03:56:27;;;;;;;;;0.25;0.00;;;;;12.53;74.92;100661.97;5078555;27;45369;-68
2022/09/20 03:59:38;;;;;;;;;3.00;3.00;;;;;12.38;75.76;100638.00;5078293;28;45433;-68
2022/09/20 04:02:32;;;;;;;;;3.50;3.50;;;;;12.44;75.99;100663.47;5072393;28;45404;-68
2022/09/20 04:05:02;;;;;;;;;3.00;2.25;;;;;12.35;76.17;100643.16;5073332;28;45365;-68
2022/09/20 04:08:11;;;;;;;;;5.00;4.00;;;;;12.39;76.22;100660.72;5078447;28;45309;-68
2022/09/20 04:11:04;;;;;;;;;3.50;3.50;;;;;12.38;76.56;100669.44;5074947;28;45503;-68
2022/09/20 04:13:46;;;;;;;;;3.00;3.00;;;;;12.38;76.95;100661.59;5078032;28;45496;-68
2022/09/20 04:16:40;;;;;;;;;2.67;2.67;;;;;12.30;76.29;100639.56;5078141;28;45435;-68
2022/09/20 04:19:11;;;;;;;;;4.75;3.00;;;;;12.42;75.86;100659.94;5078404;28;45498;-68
2022/09/20 04:21:52;;;;;;;;;6.50;5.50;;;;;12.33;76.00;100656.25;5077803;28;45753;-68
2022/09/20 04:24:43;;;;;;;;;3.00;3.00;;;;;12.32;75.83;100659.69;5077886;28;45392;-68
2022/09/20 04:27:28;;;;;;;;;3.00;3.00;;;;;12.32;76.24;100664.94;5078067;27;45188;-68
2022/09/20 04:30:05;;;;;;;;;4.00;4.00;;;;;12.37;76.23;100674.63;5078354;28;45816;-68
2022/09/20 04:32:52;;;;;;;;;3.00;2.50;;;;;12.24;75.64;100652.50;5077814;28;46183;-68
2022/09/20 04:38:29;;;;;;;;;6.00;5.00;;;;;12.06;75.86;100619.78;5077942;28;45365;-68
2022/09/20 04:41:15;;;;;;;;;4.50;4.50;;;;;12.21;76.03;100641.94;5078293;28;45392;-68
2022/09/20 04:44:03;;;;;;;;;3.25;2.50;;;;;12.34;75.65;100662.34;5077491;28;45455;-68
2022/09/20 04:46:51;;;;;;;;;5.00;4.00;;;;;12.37;75.54;100667.66;5077372;28;45426;-68
2022/09/20 04:49:37;;;;;;;;;5.00;4.00;;;;;12.30;75.53;100665.75;5077424;28;45377;-68
2022/09/20 04:52:25;;;;;;;;;6.75;6.25;;;;;12.15;75.88;100676.72;5077699;28;45488;-68
2022/09/20 04:54:56;;;;;;;;;5.75;5.00;;;;;12.07;76.08;100665.16;5077513;28;46136;-68
2022/09/20 04:57:38;;;;;;;;;6.25;5.00;;;;;11.92;76.45;100648.22;5077742;28;45364;-68
2022/09/20 05:00:11;;;;;;;;;5.50;5.00;;;;;12.03;77.06;100671.16;5077488;28;45458;-68
2022/09/20 05:02:40;;;;;;;;;3.50;3.50;;;;;12.07;76.99;100673.00;5077465;28;45500;-68
2022/09/20 05:05:09;;;;;;;;;3.75;3.00;;;;;12.09;76.40;100666.97;5077105;28;46272;-68
2022/09/20 05:07:40;;;;;;;;;3.00;3.00;;;;;12.12;76.23;100669.66;5076985;27;45444;-68
2022/09/20 05:10:33;;;;;;;;;3.00;3.00;;;;;12.12;75.97;100659.19;5077339;28;45453;-68
2022/09/20 05:13:15;;;;;;;;;3.00;3.00;;;;;12.10;76.00;100655.66;5077479;28;45372;-68
2022/09/20 05:15:53;;;;;;;;;3.00;3.00;;;;;12.10;76.11;100657.41;5077113;27;45527;-68
2022/09/20 05:18:37;;;;;;;;;5.00;4.25;;;;;12.15;75.72;100671.47;5077136;28;45322;-68
2022/09/20 05:21:27;;;;;;;;;4.75;4.50;;;;;12.14;75.34;100675.84;5077311;28;45484;-68
2022/09/20 05:24:09;;;;;;;;;4.00;4.00;;;;;11.97;75.76;100661.41;5077718;28;45157;-68
2022/09/20 05:27:07;;;;;;;;;6.00;6.00;;;;;11.90;76.06;100655.13;5077050;27;45625;-67
2022/09/20 05:29:48;;;;;;;;;4.00;4.00;;;;;12.02;75.95;100677.25;5076895;28;45441;-68
2022/09/20 05:32:25;;;;;;;;;7.00;6.75;;;;;12.01;75.96;100673.72;5077083;28;45313;-68
2022/09/20 05:35:17;;;;;;;;;6.00;4.50;;;;;11.79;76.74;100634.72;5079461;28;45383;-67
2022/09/20 05:38:20;;;;;;;;;4.00;4.00;;;;;12.05;77.39;100683.44;5080325;28;45412;-68
2022/09/20 05:41:05;;;;;;;;;4.75;4.75;;;;;12.08;77.59;100680.91;5072037;28;45593;-67
2022/09/20 05:43:35;;;;;;;;;4.50;4.00;;;;;12.05;77.48;100680.81;5080565;27;45473;-68
2022/09/20 05:46:04;;;;;;;;;5.00;5.00;;;;;12.13;77.65;100689.75;5080541;27;45964;-68
2022/09/20 05:48:48;;;;;;;;;10.50;10.50;;;;;12.12;76.96;100684.50;5080160;28;46197;-68
2022/09/20 05:52:04;;;;;;;;;6.75;6.50;;;;;12.20;76.52;100689.94;5080602;27;45322;-68
2022/09/20 05:54:45;;;;;;;;;2.00;1.75;;;;;12.22;75.88;100689.13;5057544;28;46068;-68
2022/09/20 05:57:56;;;;;;;;;5.00;5.00;;;;;12.24;75.71;100697.91;5077949;28;45549;-68
2022/09/20 06:00:26;;;;;;;;;4.00;4.00;;;;;12.27;75.56;100703.22;5071240;28;45651;-68
2022/09/20 06:03:20;;;;;;;;;6.75;5.50;;;;;12.27;75.35;100702.34;5080013;28;45555;-68
2022/09/20 06:05:48;;;;;;;;;5.50;4.25;;;;;12.32;75.83;100700.72;5080188;28;45472;-68
2022/09/20 06:08:13;;;;;;;;;6.00;6.00;;;;;12.36;76.16;100697.34;5080307;28;45472;-72
2022/09/20 06:10:56;;;;;;;;;3.75;3.75;;;;;12.39;75.46;100697.41;5079897;28;45463;-71
2022/09/20 06:13:43;;;;;;;;;4.50;4.50;;;;;12.44;75.23;100702.78;5079765;27;45469;-68
2022/09/20 06:16:20;;;;;;;;;6.00;4.50;;;;;12.50;75.31;100705.53;5079765;27;45424;-67
2022/09/20 06:18:59;;;;;;;;;5.50;5.00;;;;;12.50;75.75;100700.31;5079964;28;45401;-69
2022/09/20 06:21:40;;;;;;;;;7.75;6.75;;;;;12.55;75.84;100703.91;5079411;28;46281;-70
2022/09/20 06:24:22;;;;;;;;;3.75;3.75;;;;;12.51;75.19;100695.09;5079514;28;45375;-68
2022/09/20 06:26:53;;;;;;;;;5.75;5.00;;;;;12.64;74.76;100711.13;5080004;28;45468;-68
2022/09/20 06:29:29;;;;;;;;;5.00;5.00;;;;;12.62;74.60;100694.47;5079854;27;45332;-68
2022/09/20 06:31:55;;;;;;;;;3.75;3.75;;;;;12.82;74.31;100724.66;5079295;28;46350;-69
2022/09/20 06:34:21;;;;;;;;;4.25;3.75;;;;;12.80;74.22;100705.38;5079581;28;45222;-68
2022/09/20 06:42:33;;;;;;;;;5.00;4.00;;;;;12.96;73.44;100705.75;5079589;28;45842;-68
2022/09/20 06:44:58;;;;;;;;;4.50;4.00;;;;;12.82;73.19;100685.34;5078764;28;45318;-68
2022/09/20 06:47:25;;;;;;;;;5.00;5.00;;;;;13.06;72.87;100715.59;5079339;28;45309;-71
2022/09/20 06:49:50;;;;;;;;;4.00;3.00;;;;;13.10;73.22;100710.44;5079761;28;45500;-70
2022/09/20 06:52:18;;;;;;;;;5.00;5.00;;;;;13.24;73.08;100720.34;5079255;28;45545;-71
2022/09/20 06:54:45;;;;;;;;;5.00;4.33;;;;;13.32;72.86;100717.06;5079405;28;45309;-71
2022/09/20 06:57:18;;;;;;;;;4.75;4.75;;;;;15.52;69.41;100709.44;5079286;28;45414;-72
2022/09/20 06:59:44;;;;;;;;;12.00;11.00;;;;;18.76;57.84;100694.59;5079324;28;45323;-71
2022/09/20 07:02:10;;;;;;;;;7.00;7.00;;;;;21.10;54.50;100698.56;5079169;28;46113;-70
2022/09/20 07:04:36;;;;;;;;;7.67;6.67;;;;;22.96;49.08;100687.91;5079350;28;45261;-68
2022/09/20 07:07:03;;;;;;;;;7.00;5.67;;;;;24.32;42.96;100667.19;5079793;28;45426;-68
2022/09/20 07:09:30;;;;;;;;;3.00;2.33;;;;;25.69;41.20;100694.69;5079541;28;45326;-69
2022/09/20 07:11:58;;;;;;;;;4.67;4.67;;;;;26.61;38.11;100691.78;5079089;28;45732;-68
2022/09/20 07:14:27;;;;;;;;;7.00;5.00;;;;;27.47;38.68;100698.56;5079069;28;45449;-69
2022/09/20 07:16:53;;;;;;;;;5.33;5.00;;;;;28.30;37.04;100701.56;5079101;28;45468;-68
2022/09/20 07:19:19;;;;;;;;;4.33;4.33;;;;;29.09;34.92;100692.88;5079182;28;45539;-68
2022/09/20 07:21:45;;;;;;;;;4.00;4.00;;;;;29.85;32.88;100685.78;5060468;28;46697;-69
2022/09/20 07:24:13;;;;;;;;;4.33;4.00;;;;;30.59;31.99;100692.06;5078253;28;45491;-69
2022/09/20 07:26:39;;;;;;;;;2.00;2.00;;;;;31.25;30.53;100688.59;5079300;28;45343;-69
2022/09/20 07:29:06;;;;;;;;;5.00;4.00;;;;;31.86;30.75;100690.63;5079141;28;45398;-69
2022/09/20 07:31:32;;;;;;;;;5.00;4.00;;;;;32.43;30.00;100681.97;5078740;28;45695;-70
2022/09/20 07:33:58;;;;;;;;;5.00;5.00;;;;;33.06;28.32;100705.22;5078615;28;45275;-70
2022/09/20 07:36:23;;;;;;;;;3.00;3.00;;;;;33.42;27.85;100682.25;5078665;28;45405;-70
2022/09/20 07:38:51;;;;;;;;;4.00;4.00;;;;;34.05;27.17;100709.88;5079163;28;45460;-70
2022/09/20 07:41:18;;;;;;;;;2.33;2.00;;;;;34.45;27.31;100715.38;5078486;28;46499;-71
2022/09/20 07:43:44;;;;;;;;;3.33;3.00;;;;;34.75;25.98;100712.44;5077267;28;45217;-70
2022/09/20 07:46:12;;;;;;;;;2.67;2.67;;;;;35.24;25.76;100714.47;5078534;28;45273;-70
2022/09/20 07:48:39;;;;;;;;;3.33;3.33;;;;;35.28;26.69;100709.69;5078771;28;45380;-70
2022/09/20 07:51:10;;;;;;;;;3.00;2.33;;;;;35.44;25.63;100723.91;5078532;28;46523;-69
2022/09/20 07:53:36;;;;;;;;;3.67;3.00;;;;;35.71;25.32;100716.59;5078778;28;45515;-70
2022/09/20 07:56:14;;;;;;;;;3.00;2.67;;;;;35.95;25.23;100709.38;5078322;28;45239;-70
2022/09/20 07:58:40;;;;;;;;;3.33;2.67;;;;;36.36;24.89;100713.56;5078489;27;45410;-70
2022/09/20 08:01:08;;;;;;;;;3.00;2.00;;;;;36.36;25.38;100719.00;5078660;28;45673;-70
2022/09/20 08:03:35;;;;;;;;;3.00;2.67;;;;;36.18;24.71;100709.53;5078215;28;45430;-70
2022/09/20 08:06:06;;;;;;;;;3.33;3.00;;;;;36.47;24.48;100709.16;5077996;28;45485;-70
2022/09/20 08:08:37;;;;;;;;;3.00;2.33;;;;;36.60;24.59;100716.25;5078421;28;45211;-70
2022/09/20 08:11:18;;;;;;;;;3.00;3.00;;;;;37.20;24.32;100729.84;5078080;28;45342;-70
2022/09/20 08:13:49;;;;;;;;;3.67;3.33;;;;;37.37;24.75;100720.34;5077730;27;45388;-71
2022/09/20 08:16:15;;;;;;;;;5.33;4.00;;;;;37.37;24.68;100734.81;5077826;28;45389;-71
2022/09/20 08:18:53;;;;;;;;;3.00;3.00;;;;;37.74;24.14;100733.72;5078056;27;45326;-73
2022/09/20 08:21:19;;;;;;;;;5.00;4.67;;;;;38.01;23.02;100727.88;5077644;28;45527;-73
2022/09/20 08:23:49;;;;;;;;;4.00;3.67;;;;;38.25;23.76;100733.16;5077572;28;45353;-71
2022/09/20 08:26:17;;;;;;;;;5.33;4.67;;;;;38.44;22.69;100743.41;5093119;27;45429;-71
2022/09/20 08:28:45;;;;;;;;;2.67;2.67;;;;;38.68;22.85;100750.50;5077791;27;45464;-71
2022/09/20 08:31:13;;;;;;;;;4.00;3.67;;;;;38.54;22.59;100733.47;5077327;27;45311;-71
2022/09/20 08:33:39;;;;;;;;;3.00;2.67;;;;;38.74;22.89;100739.09;5077468;27;45428;-71
2022/09/20 08:36:12;;;;;;;;;6.67;5.67;;;;;39.00;23.07;100742.31;5078050;27;45469;-71
2022/09/20 08:38:39;;;;;;;;;2.33;2.33;;;;;39.14;22.57;100727.44;5078004;27;45449;-71
2022/09/20 08:41:18;;;;;;;;;2.67;2.67;;;;;39.63;22.93;100749.56;5077530;27;45511;-70
2022/09/20 08:43:50;;;;;;;;;3.33;3.00;;;;;39.70;21.45;100737.09;5077669;28;45248;-71
2022/09/20 08:46:19;;;;;;;;;2.33;2.00;;;;;39.61;22.38;100737.91;5077620;28;45339;-71
2022/09/20 08:48:46;;;;;;;;;5.67;4.00;;;;;39.35;21.91;100744.66;5077619;28;45223;-71
2022/09/20 08:51:15;;;;;;;;;4.67;3.00;;;;;39.25;21.79;100754.66;5076973;28;45969;-73
2022/09/20 08:53:59;;;;;;;;;2.00;2.00;;;;;38.93;22.40;100746.53;5076948;27;45367;-71
2022/09/20 08:56:28;;;;;;;;;2.67;2.67;;;;;38.40;23.07;100747.34;5077076;28;45469;-71
2022/09/20 08:58:58;;;;;;;;;1.67;1.67;;;;;37.80;23.95;100750.47;5077285;27;45499;-71
2022/09/20 09:01:26;;;;;;;;;2.33;2.00;;;;;37.16;24.89;100748.28;5076984;28;45473;-73
2022/09/20 09:04:04;;;;;;;;;3.00;3.00;;;;;36.61;25.09;100756.13;5077096;27;45503;-71
2022/09/20 09:06:30;;;;;;;;;3.33;3.00;;;;;36.30;24.78;100756.69;5077198;28;45262;-71
2022/09/20 09:08:58;;;;;;;;;2.67;2.67;;;;;35.90;25.68;100751.47;5076318;27;45475;-71
2022/09/20 09:11:24;;;;;;;;;2.67;2.33;;;;;35.53;26.65;100763.13;5092496;27;45714;-68
2022/09/20 09:14:46;;;;;;;;;6.67;6.67;;;;;35.33;26.44;100761.81;5076830;28;45458;-71
2022/09/20 09:16:48;;;;;;;;;3.33;3.00;;;;;34.90;27.42;100743.09;5076530;28;45414;-71
2022/09/20 09:19:45;;;;;;;;;5.00;4.00;;;;;35.30;27.33;100772.91;5075879;28;45540;-71
2022/09/20 09:22:16;;;;;;;;;5.00;4.00;;;;;34.97;26.80;100770.66;5083973;27;46810;-71
2022/09/20 09:24:41;;;;;;;;;3.33;3.33;;;;;35.03;26.39;100765.66;5076781;28;45341;-71
2022/09/20 09:27:18;;;;;;;;;4.33;4.33;;;;;35.10;27.27;100771.56;5076868;28;45325;-72
2022/09/20 09:29:53;;;;;;;;;2.67;2.33;;;;;35.13;26.54;100771.34;5076613;28;45148;-73
2022/09/20 09:32:31;;;;;;;;;4.00;4.00;;;;;34.76;27.54;100773.88;5076399;27;46170;-71
2022/09/20 09:35:30;;;;;;;;;5.00;5.00;;;;;34.63;28.28;100773.81;5075930;28;45370;-72
2022/09/20 09:38:00;;;;;;;;;2.67;2.67;;;;;34.45;28.01;100753.34;5076097;27;45410;-71
2022/09/20 09:40:28;;;;;;;;;4.67;4.00;;;;;34.62;27.34;100766.66;5076400;28;45382;-71
2022/09/20 09:42:57;;;;;;;;;6.00;4.00;;;;;34.92;27.50;100776.44;5076054;28;46515;-72
2022/09/20 09:45:30;;;;;;;;;3.67;3.67;;;;;34.95;27.16;100778.06;5075887;28;45362;-70
2022/09/20 09:47:58;;;;;;;;;3.33;3.33;;;;;35.29;27.51;100781.16;5075723;28;45456;-73
2022/09/20 09:50:33;;;;;;;;;3.33;3.33;;;;;35.39;26.63;100774.97;5076084;28;45463;-73
2022/09/20 09:53:09;;;;;;;;;3.67;3.67;;;;;35.79;26.97;100780.31;5075501;28;45594;-70
2022/09/20 09:55:40;;;;;;;;;5.00;4.00;;;;;35.96;26.94;100765.47;5075838;28;45385;-71
2022/09/20 09:58:38;;;;;;;;;3.00;3.00;;;;;36.24;26.64;100774.34;5076335;28;45432;-71
2022/09/20 10:01:10;;;;;;;;;4.67;4.67;;;;;36.60;25.53;100775.28;5065802;28;45485;-72
2022/09/20 10:03:56;;;;;;;;;7.00;7.00;;;;;36.59;25.90;100777.13;5075820;28;45987;-70
2022/09/20 10:06:47;;;;;;;;;4.67;4.67;;;;;36.08;25.01;100779.16;5075959;28;45328;-70
2022/09/20 10:09:44;;;;;;;;;5.67;4.67;;;;;35.14;26.04;100781.22;5074755;28;45485;-70
2022/09/20 10:12:36;;;;;;;;;2.67;2.67;;;;;35.07;26.25;100782.63;5076576;27;45475;-71
2022/09/20 10:15:29;;;;;;;;;3.67;2.67;;;;;35.44;25.20;100774.66;5075781;28;45499;-70
2022/09/20 10:18:16;;;;;;;;;4.33;4.33;;;;;35.65;24.97;100775.84;5075819;27;45491;-72
2022/09/20 10:21:06;;;;;;;;;4.00;3.67;;;;;35.68;24.40;100782.06;5078547;28;45383;-71
2022/09/20 10:23:50;;;;;;;;;5.67;4.33;;;;;35.46;24.86;100767.25;5079659;28;45203;-70
2022/09/20 10:27:08;;;;;;;;;4.33;4.33;;;;;35.33;26.04;100778.13;5078817;28;45666;-71
2022/09/20 10:30:02;;;;;;;;;4.00;4.00;;;;;34.70;26.49;100765.28;5049385;27;45540;-71
2022/09/20 10:33:01;;;;;;;;;5.00;4.00;;;;;34.15;26.87;100783.38;5079307;27;45405;-71
2022/09/20 10:35:41;;;;;;;;;6.33;5.33;;;;;33.75;26.85;100788.63;5079454;27;45450;-71
2022/09/20 10:38:25;;;;;;;;;7.00;6.33;;;;;33.33;27.62;100788.47;5078651;28;45517;-71
2022/09/20 10:44:55;;;;;;;;;8.33;7.00;;;;;32.88;28.68;100774.00;5057088;28;45329;-71
2022/09/20 10:47:30;;;;;;;;;6.33;6.33;;;;;32.57;28.81;100775.84;5078024;27;45324;-72
2022/09/20 10:50:02;;;;;;;;;8.67;8.33;;;;;32.15;30.01;100784.53;5078649;28;45408;-72
2022/09/20 10:52:38;;;;;;;;;8.33;8.00;;;;;32.17;29.89;100783.53;5076757;28;45574;-71
2022/09/20 10:55:46;;;;;;;;;7.00;7.00;;;;;32.16;29.73;100780.91;5078592;27;45439;-70
2022/09/20 10:58:39;;;;;;;;;7.67;7.00;;;;;32.04;29.29;100780.63;5068323;28;45693;-72
2022/09/20 11:01:37;;;;;;;;;6.00;5.67;;;;;31.68;28.45;100770.88;5078729;27;45496;-71
2022/09/20 11:04:27;;;;;;;;;8.33;8.00;;;;;31.54;29.95;100775.28;5078435;28;45273;-70
2022/09/20 11:07:12;;;;;;;;;10.00;10.00;;;;;31.13;30.55;100763.84;5078167;28;45379;-69
2022/09/20 11:09:46;;;;;;;;;13.33;10.33;;;;;31.00;31.33;100767.28;5076564;28;45696;-71
2022/09/20 11:12:32;;;;;;;;;10.33;9.67;;;;;29.91;31.85;100750.13;5078310;28;45282;-70
2022/09/20 11:15:04;;;;;;;;;10.00;10.00;;;;;29.44;32.88;100780.06;5077086;28;45958;-70
2022/09/20 11:17:36;;;;;;;;;11.67;10.67;;;;;29.39;32.57;100765.97;5078576;27;45159;-70
2022/09/20 11:20:13;;;;;;;;;9.67;9.00;;;;;28.76;32.75;100764.16;5078907;27;45234;-70
2022/09/20 11:22:48;;;;;;;;;9.00;9.00;;;;;28.74;33.58;100765.16;5076983;28;45444;-70
2022/09/20 11:25:29;;;;;;;;;12.33;12.33;;;;;28.48;34.06;100766.22;5078887;28;45261;-70
2022/09/20 11:28:06;;;;;;;;;12.33;11.67;;;;;28.55;34.55;100773.13;5078536;27;45457;-70
2022/09/20 11:30:35;;;;;;;;;14.00;10.33;;;;;28.06;34.81;100734.81;5078637;27;45334;-70
2022/09/20 11:33:09;;;;;;;;;12.67;10.67;;;;;28.13;35.45;100765.81;5077275;28;46101;-70
2022/09/20 11:35:45;;;;;;;;;13.00;12.00;;;;;28.11;36.04;100768.59;5078277;28;45176;-71
2022/09/20 11:38:47;;;;;;;;;13.00;13.00;;;;;27.60;37.06;100782.19;5077982;28;45461;-71
2022/09/20 11:41:26;;;;;;;;;15.67;15.33;;;;;27.65;36.53;100770.31;5078440;28;45497;-71
2022/09/20 11:43:57;;;;;;;;;15.33;15.00;;;;;27.65;37.17;100764.06;5078196;28;46121;-70
2022/09/20 11:46:53;;;;;;;;;16.33;15.67;;;;;27.36;37.61;100780.31;5078117;28;45401;-72
2022/09/20 11:49:29;;;;;;;;;13.33;12.00;;;;;27.41;37.27;100766.72;5069942;28;45454;-70
2022/09/20 11:52:16;;;;;;;;;13.33;12.33;;;;;27.36;37.68;100774.09;5078130;28;45355;-70
2022/09/20 11:55:09;;;;;;;;;10.00;10.00;;;;;27.29;37.53;100773.41;5078133;28;45333;-70
2022/09/20 11:57:36;;;;;;;;;7.67;7.67;;;;;27.23;37.70;100767.38;5077915;28;45729;-70
2022/09/20 12:00:06;;;;;;;;;6.33;6.33;;;;;27.16;37.40;100764.91;5078120;27;45333;-71
2022/09/20 12:02:39;;;;;;;;;7.00;7.00;;;;;27.16;37.37;100767.59;5076938;27;45430;-70
2022/09/20 12:05:19;;;;;;;;;6.00;5.33;;;;;26.90;37.77;100768.50;5077280;27;45349;-71
2022/09/20 12:07:44;;;;;;;;;6.00;6.00;;;;;26.33;38.46;100756.94;5077286;28;45468;-72
2022/09/20 12:10:24;;;;;;;;;4.00;4.00;;;;;26.08;39.03;100772.03;5077881;28;45375;-70
2022/09/20 12:12:58;;;;;;;;;5.67;5.67;;;;;26.08;38.30;100769.34;5078544;28;45367;-70
2022/09/20 12:15:33;;;;;;;;;9.67;8.67;;;;;26.08;38.44;100778.25;5077336;27;46263;-70
2022/09/20 12:17:58;;;;;;;;;5.00;5.00;;;;;26.08;38.89;100774.72;5077656;28;45517;-71
2022/09/20 12:20:43;;;;;;;;;7.00;5.00;;;;;25.88;38.74;100770.78;5077785;28;45300;-70
2022/09/20 12:23:40;;;;;;;;;5.00;4.00;;;;;25.99;38.87;100776.75;5077923;27;45481;-70
2022/09/20 12:26:10;;;;;;;;;4.00;4.00;;;;;26.07;38.85;100764.94;5076599;27;46017;-72